ADDS METAR Data INFO
IDs: Format: Raw Decoded Include TAF

Data at: 1552 UTC 12 Dec 2017

METAR for:TISX (St Croix/Rohlsen Arp, --, VI)
Text:TISX 121516Z 12009KT 10SM FEW002 28/22 A2996 RMK AO2 T02830222
Temperature: 28.3°C ( 83°F)
Dewpoint: 22.2°C ( 72°F) [RH = 70%]
Pressure (altimeter):29.96 inches Hg (1014.6 mb)
Winds:from the ESE (120 degrees) at 10 MPH (9 knots; 4.6 m/s)
Visibility:10 or more sm (16+ km)
Ceiling:at least 12,000 feet AGL
Clouds: few clouds at 200 feet AGL